Time;durP1;ratioP1;P1;durP2;ratioP2;P2;SDS_P1;SDS_P2;PMS_P1;PMS_P2;Temp;Humidity;BMP_temperature;BMP_pressure;BME280_temperature;BME280_humidity;BME280_pressure;Samples;Min_cycle;Max_cycle;Signal;HPM_P1;HPM_P2
2022/02/01 00:00:06;;;;;;;3.20;1.30;;;7.00;99.90;;;;;;5039381;28;20261;-67
2022/02/01 00:02:43;;;;;;;2.33;1.40;;;7.00;99.90;;;;;;5042080;28;20201;-67
2022/02/01 00:05:25;;;;;;;3.70;1.30;;;7.10;99.90;;;;;;5027726;28;20178;-67
2022/02/01 00:14:02;;;;;;;3.47;1.37;;;7.10;99.90;;;;;;5047478;28;20179;-67
2022/02/01 00:16:37;;;;;;;1.63;1.40;;;7.10;99.90;;;;;;5034694;28;20194;-67
2022/02/01 00:19:04;;;;;;;1.73;1.23;;;7.10;99.90;;;;;;5035443;28;20489;-67
2022/02/01 00:40:38;;;;;;;1.90;1.10;;;6.90;99.90;;;;;;5002351;28;20690;-67
2022/02/01 00:43:08;;;;;;;3.73;1.30;;;7.00;99.90;;;;;;5051396;28;20265;-67
2022/02/01 00:45:35;;;;;;;8.13;1.47;;;7.10;99.90;;;;;;5029931;28;20199;-67
2022/02/01 00:48:03;;;;;;;1.83;1.10;;;7.00;99.90;;;;;;5029049;28;20245;-67
2022/02/01 00:50:29;;;;;;;4.50;1.10;;;7.00;99.90;;;;;;5030295;28;20184;-67
2022/02/01 00:52:55;;;;;;;3.17;1.07;;;6.90;99.90;;;;;;5012854;28;20192;-67
2022/02/01 00:55:21;;;;;;;6.50;1.13;;;7.00;99.90;;;;;;5029310;28;20263;-67
2022/02/01 00:57:48;;;;;;;1.70;1.07;;;7.00;99.90;;;;;;5029557;28;20768;-67
2022/02/01 01:00:14;;;;;;;3.43;1.33;;;7.00;99.90;;;;;;5030116;28;20184;-67
2022/02/01 01:02:41;;;;;;;1.93;0.90;;;6.90;99.90;;;;;;5027532;28;20213;-67
2022/02/01 01:05:08;;;;;;;2.03;1.23;;;6.90;99.90;;;;;;5044750;28;20188;-67
2022/02/01 01:07:34;;;;;;;2.53;1.23;;;6.90;99.90;;;;;;5025415;28;20203;-67
2022/02/01 01:10:02;;;;;;;1.27;1.00;;;6.90;99.90;;;;;;5030183;28;20198;-67
2022/02/01 01:12:31;;;;;;;1.87;1.07;;;6.90;99.90;;;;;;5047054;28;20180;-67
2022/02/01 01:15:17;;;;;;;1.40;1.00;;;6.90;99.90;;;;;;5061398;28;20232;-67
2022/02/01 01:45:06;;;;;;;2.17;1.07;;;6.90;99.90;;;;;;5047755;28;20251;-67
2022/02/01 01:55:42;;;;;;;4.40;1.10;;;6.80;99.90;;;;;;5047523;28;20190;-67
2022/02/01 01:58:10;;;;;;;1.40;1.10;;;6.90;99.90;;;;;;5036547;28;20199;-67
2022/02/01 02:03:27;;;;;;;0.97;0.87;;;6.80;99.90;;;;;;5047241;28;20214;-67
2022/02/01 02:05:54;;;;;;;1.27;0.90;;;6.80;99.90;;;;;;5028701;28;20237;-67
2022/02/01 02:08:20;;;;;;;3.43;1.00;;;6.80;99.90;;;;;;5045353;28;20195;-67
2022/02/01 02:11:00;;;;;;;3.67;0.90;;;6.80;99.90;;;;;;5046543;28;20210;-67
2022/02/01 02:16:00;;;;;;;2.17;1.07;;;6.80;99.90;;;;;;5033479;28;20261;-67
2022/02/01 02:18:35;;;;;;;4.17;1.20;;;6.80;99.90;;;;;;5026648;28;20180;-67
2022/02/01 02:21:04;;;;;;;5.47;1.83;;;6.80;99.90;;;;;;5026385;28;20191;-67
2022/02/01 02:23:31;;;;;;;2.10;1.17;;;6.80;99.90;;;;;;5045062;28;20300;-67
2022/02/01 02:25:57;;;;;;;1.53;1.10;;;6.80;99.90;;;;;;5040944;28;20195;-68
2022/02/01 02:28:24;;;;;;;1.40;1.10;;;6.80;99.90;;;;;;5041799;28;20699;-67
2022/02/01 02:30:52;;;;;;;7.53;1.30;;;6.80;99.90;;;;;;5045593;28;20195;-67
2022/02/01 02:33:19;;;;;;;3.50;1.10;;;6.80;99.90;;;;;;5047925;28;20199;-67
2022/02/01 02:36:01;;;;;;;1.33;0.93;;;6.80;99.90;;;;;;5045863;28;20287;-67
2022/02/01 02:38:39;;;;;;;5.13;1.20;;;6.80;99.90;;;;;;5038641;28;20234;-67
2022/02/01 02:41:23;;;;;;;1.20;0.90;;;6.80;99.90;;;;;;5027579;28;20256;-67
2022/02/01 02:46:45;;;;;;;2.17;0.90;;;6.90;99.90;;;;;;5044953;28;20286;-67
2022/02/01 02:49:16;;;;;;;2.67;1.10;;;6.90;99.90;;;;;;5026993;28;20199;-67
2022/02/01 02:51:43;;;;;;;1.97;0.93;;;6.80;99.90;;;;;;5045979;28;20188;-67
2022/02/01 02:54:14;;;;;;;2.00;1.33;;;6.80;99.90;;;;;;5045602;28;20191;-67
2022/02/01 02:56:59;;;;;;;1.53;1.00;;;6.80;99.90;;;;;;5042152;28;20620;-67
2022/02/01 02:59:27;;;;;;;2.70;0.90;;;6.80;99.90;;;;;;5039315;28;20199;-67
2022/02/01 03:01:55;;;;;;;1.87;1.00;;;6.80;99.90;;;;;;5046616;28;20199;-67
2022/02/01 03:04:24;;;;;;;3.17;0.97;;;6.90;99.90;;;;;;5070292;28;20590;-67
2022/02/01 03:06:53;;;;;;;1.83;1.13;;;6.80;99.90;;;;;;5031340;28;20823;-67
2022/02/01 03:09:21;;;;;;;3.60;1.20;;;6.80;99.90;;;;;;5061157;28;20253;-67
2022/02/01 03:11:58;;;;;;;2.47;0.97;;;6.80;99.90;;;;;;5049947;28;20256;-67
2022/02/01 03:19:47;;;;;;;3.73;1.00;;;6.80;99.90;;;;;;5057034;28;20195;-67
2022/02/01 03:20:13;;;;;;;3.37;1.10;;;6.80;99.90;;;;;;5053085;28;21103;-67
2022/02/01 03:22:40;;;;;;;4.30;1.37;;;6.80;99.90;;;;;;5047844;28;20199;-67
2022/02/01 03:25:10;;;;;;;1.30;0.90;;;6.80;99.90;;;;;;5049630;28;20320;-67
2022/02/01 03:27:37;;;;;;;1.73;1.00;;;6.80;99.90;;;;;;5042167;28;20191;-67
2022/02/01 03:30:04;;;;;;;5.80;1.30;;;6.80;99.90;;;;;;5051772;28;20660;-67
2022/02/01 03:32:30;;;;;;;2.80;1.40;;;6.80;99.90;;;;;;5049948;28;20188;-67
2022/02/01 03:34:57;;;;;;;3.93;1.10;;;6.90;99.90;;;;;;5043587;28;20218;-67
2022/02/01 03:37:23;;;;;;;3.00;1.20;;;6.90;99.90;;;;;;5044166;28;20230;-67
2022/02/01 03:39:49;;;;;;;2.20;1.30;;;6.90;99.90;;;;;;5025988;28;20195;-67
2022/02/01 03:42:16;;;;;;;2.37;1.40;;;6.90;99.90;;;;;;5048602;28;20199;-67
2022/02/01 03:44:42;;;;;;;1.27;1.10;;;6.90;99.90;;;;;;5040772;28;20214;-67
2022/02/01 03:47:09;;;;;;;3.20;1.20;;;6.80;99.90;;;;;;5029277;28;20191;-67
2022/02/01 03:49:42;;;;;;;2.20;0.90;;;6.80;99.90;;;;;;5030767;28;20234;-67
2022/02/01 03:52:10;;;;;;;1.57;1.10;;;6.80;99.90;;;;;;5047729;28;20499;-67
2022/02/01 03:54:37;;;;;;;1.40;0.93;;;6.80;99.90;;;;;;5048297;28;20310;-67
2022/02/01 03:57:07;;;;;;;2.73;1.13;;;6.90;99.90;;;;;;5046937;28;20205;-67
2022/02/01 03:59:34;;;;;;;1.20;1.10;;;6.80;99.90;;;;;;5045665;28;20230;-67
2022/02/01 04:02:03;;;;;;;1.90;1.00;;;6.80;99.90;;;;;;5048211;28;20226;-67
2022/02/01 04:04:32;;;;;;;2.37;1.10;;;6.80;99.90;;;;;;5048802;28;20273;-67
2022/02/01 04:06:59;;;;;;;2.30;1.27;;;6.70;99.90;;;;;;5030398;28;20191;-67
2022/02/01 04:09:27;;;;;;;1.97;1.13;;;6.70;99.90;;;;;;5043856;28;20196;-67
2022/02/01 04:11:56;;;;;;;3.10;1.10;;;6.80;99.90;;;;;;5029855;28;20195;-67
2022/02/01 04:14:27;;;;;;;2.73;1.20;;;6.80;99.90;;;;;;5029678;28;20215;-67
2022/02/01 04:16:55;;;;;;;2.83;1.20;;;6.80;99.90;;;;;;5014029;28;20827;-67
2022/02/01 04:19:21;;;;;;;2.43;1.10;;;6.90;99.90;;;;;;5063706;28;20286;-67
2022/02/01 04:24:24;;;;;;;2.07;0.90;;;6.80;99.90;;;;;;5027497;28;20624;-67
2022/02/01 04:26:50;;;;;;;1.30;0.90;;;6.80;99.90;;;;;;5029738;28;20663;-66
2022/02/01 04:29:17;;;;;;;2.77;1.30;;;6.80;99.90;;;;;;5042511;28;20189;-67
2022/02/01 04:31:43;;;;;;;2.27;1.20;;;6.80;99.90;;;;;;5028672;28;20626;-67
2022/02/01 04:34:10;;;;;;;2.53;1.20;;;6.80;99.90;;;;;;5052112;28;20195;-67
2022/02/01 04:36:37;;;;;;;2.40;1.20;;;6.90;99.90;;;;;;5047110;28;20203;-67
2022/02/01 04:39:04;;;;;;;2.10;1.10;;;6.90;99.90;;;;;;5033592;28;20278;-66
2022/02/01 04:41:31;;;;;;;5.43;1.20;;;6.90;99.90;;;;;;5048422;28;20199;-67
2022/02/01 04:43:58;;;;;;;4.53;1.00;;;6.90;99.90;;;;;;5026953;28;20255;-66
2022/02/01 04:46:26;;;;;;;4.47;1.20;;;6.90;99.90;;;;;;5055384;28;20184;-67
2022/02/01 04:48:53;;;;;;;5.63;2.73;;;6.90;99.90;;;;;;5016724;28;20257;-67
2022/02/01 04:51:21;;;;;;;6.97;4.40;;;7.00;99.90;;;;;;5012093;28;20236;-67
2022/02/01 04:53:48;;;;;;;8.30;4.97;;;7.00;99.90;;;;;;5029260;28;20320;-67
2022/02/01 04:56:15;;;;;;;11.60;6.07;;;7.10;99.90;;;;;;5047419;28;20274;-67
2022/02/01 04:58:43;;;;;;;10.87;5.80;;;7.10;99.90;;;;;;5046262;28;20199;-67
2022/02/01 05:01:12;;;;;;;8.33;5.60;;;7.10;99.90;;;;;;5049256;28;20195;-67
2022/02/01 05:03:39;;;;;;;4.37;2.93;;;7.10;99.90;;;;;;5047555;28;20211;-67
2022/02/01 05:06:07;;;;;;;4.97;2.40;;;7.20;99.90;;;;;;5034032;28;20249;-67
2022/02/01 05:08:34;;;;;;;4.23;1.37;;;7.10;99.90;;;;;;5043475;28;20282;-67
2022/02/01 05:11:01;;;;;;;2.73;1.27;;;7.20;99.90;;;;;;5016323;28;20712;-67
2022/02/01 05:16:14;;;;;;;3.57;2.43;;;7.20;99.90;;;;;;5043942;28;20334;-67
2022/02/01 05:18:46;;;;;;;1.60;1.20;;;7.20;99.90;;;;;;5012412;28;20237;-67
2022/02/01 05:21:25;;;;;;;4.90;1.30;;;7.20;99.90;;;;;;5050261;28;20270;-66
2022/02/01 05:23:56;;;;;;;1.97;1.23;;;7.20;99.90;;;;;;5029083;28;20219;-67
2022/02/01 05:26:24;;;;;;;2.80;1.33;;;7.30;99.90;;;;;;5029044;28;20192;-66
2022/02/01 05:28:53;;;;;;;3.07;1.10;;;7.30;99.90;;;;;;5050005;28;20667;-67
2022/02/01 05:31:21;;;;;;;1.40;1.03;;;7.40;99.90;;;;;;5028618;28;20828;-67
2022/02/01 05:33:48;;;;;;;2.17;1.00;;;7.40;99.90;;;;;;5046232;28;20192;-67
2022/02/01 05:36:14;;;;;;;2.47;1.20;;;7.50;99.90;;;;;;5028764;28;20231;-67
2022/02/01 05:38:40;;;;;;;1.10;0.93;;;7.60;99.90;;;;;;5049763;28;21000;-67
2022/02/01 05:41:09;;;;;;;4.90;1.30;;;7.60;99.90;;;;;;5056289;28;20672;-67
2022/02/01 05:43:41;;;;;;;1.83;1.33;;;7.60;99.90;;;;;;5049172;28;20226;-67
2022/02/01 05:46:08;;;;;;;2.67;1.17;;;7.60;99.90;;;;;;5045245;28;20695;-67
2022/02/01 05:48:35;;;;;;;3.80;1.10;;;7.60;99.90;;;;;;5028639;28;20192;-67
2022/02/01 05:51:01;;;;;;;1.40;0.87;;;7.70;99.90;;;;;;5044872;28;20196;-67
2022/02/01 05:53:28;;;;;;;2.73;1.17;;;7.70;99.90;;;;;;5047130;28;20255;-67
2022/02/01 05:55:55;;;;;;;1.47;0.97;;;7.70;99.90;;;;;;5032695;28;20930;-67
2022/02/01 05:58:22;;;;;;;1.90;1.17;;;7.80;99.90;;;;;;5027786;28;20191;-67
2022/02/01 06:00:48;;;;;;;9.47;1.20;;;7.90;99.90;;;;;;5047278;28;20184;-67
2022/02/01 06:03:15;;;;;;;3.03;1.20;;;7.90;99.90;;;;;;5049742;28;20230;-67
2022/02/01 06:05:42;;;;;;;2.03;1.17;;;8.00;99.90;;;;;;5045637;28;20788;-67
2022/02/01 06:08:10;;;;;;;2.87;1.30;;;8.10;99.90;;;;;;5015078;28;20204;-67
2022/02/01 06:10:36;;;;;;;1.70;1.10;;;8.10;99.90;;;;;;5046510;28;20341;-67
2022/02/01 06:13:03;;;;;;;3.70;1.50;;;8.20;99.90;;;;;;5043071;28;20187;-67
2022/02/01 06:15:30;;;;;;;7.50;1.50;;;8.20;99.90;;;;;;5046365;28;20190;-67
2022/02/01 06:17:57;;;;;;;2.80;1.43;;;8.20;99.90;;;;;;5028031;28;20187;-67
2022/02/01 06:20:24;;;;;;;3.43;1.30;;;8.20;99.90;;;;;;5048555;28;20689;-67
2022/02/01 06:22:50;;;;;;;2.43;1.00;;;8.30;99.90;;;;;;5049165;28;20755;-67
2022/02/01 06:25:25;;;;;;;4.63;1.30;;;8.30;99.90;;;;;;5053334;28;20218;-67
2022/02/01 06:27:51;;;;;;;2.60;1.10;;;8.30;99.90;;;;;;5022188;28;20194;-67
2022/02/01 06:30:17;;;;;;;2.10;1.10;;;8.30;99.90;;;;;;5046197;28;20190;-67
2022/02/01 06:32:44;;;;;;;1.40;1.03;;;8.40;99.90;;;;;;5027147;28;20268;-67
2022/02/01 06:35:10;;;;;;;1.87;1.00;;;8.40;99.90;;;;;;5045192;28;20572;-67
2022/02/01 06:37:36;;;;;;;1.40;1.10;;;8.50;99.90;;;;;;5028735;28;20211;-67
2022/02/01 06:40:04;;;;;;;3.43;1.60;;;8.60;99.90;;;;;;5013386;28;20187;-67
2022/02/01 06:42:33;;;;;;;3.27;1.13;;;8.70;99.90;;;;;;5048861;28;20199;-67
2022/02/01 06:45:01;;;;;;;3.23;1.53;;;8.70;99.90;;;;;;5058437;28;20537;-67
2022/02/01 06:47:27;;;;;;;2.10;1.40;;;8.80;99.90;;;;;;5065680;28;20588;-67
2022/02/01 06:49:54;;;;;;;3.40;1.40;;;8.80;99.90;;;;;;5055933;28;21028;-67
2022/02/01 06:52:20;;;;;;;2.87;1.30;;;8.90;99.90;;;;;;5027113;28;20687;-67
2022/02/01 06:54:46;;;;;;;2.33;1.30;;;8.90;99.90;;;;;;5046000;28;20278;-67
2022/02/01 06:57:12;;;;;;;1.37;1.00;;;8.90;99.90;;;;;;5045787;28;20188;-67
2022/02/01 06:59:38;;;;;;;4.00;1.33;;;8.90;99.90;;;;;;5048868;28;20960;-67
2022/02/01 07:02:05;;;;;;;4.70;1.27;;;8.90;99.90;;;;;;5045840;28;20691;-66
2022/02/01 07:04:31;;;;;;;3.33;1.47;;;8.90;99.90;;;;;;5043876;28;20230;-67
2022/02/01 07:06:57;;;;;;;1.60;1.07;;;8.90;99.90;;;;;;5048619;28;20273;-67
2022/02/01 07:09:24;;;;;;;1.60;1.00;;;8.90;99.90;;;;;;5046437;28;20782;-67
2022/02/01 07:11:51;;;;;;;3.63;1.10;;;8.90;99.90;;;;;;5048441;28;20183;-67
2022/02/01 07:14:17;;;;;;;5.60;1.20;;;8.90;99.90;;;;;;5011858;28;20823;-67
2022/02/01 07:16:43;;;;;;;1.57;1.20;;;8.80;99.90;;;;;;5030771;28;20191;-67
2022/02/01 07:19:10;;;;;;;4.30;1.60;;;8.80;99.90;;;;;;5044583;28;20187;-67
2022/02/01 07:21:36;;;;;;;1.23;1.13;;;8.80;99.90;;;;;;5009950;28;20679;-66
2022/02/01 07:24:05;;;;;;;2.77;1.70;;;8.80;99.90;;;;;;5025583;28;20323;-67
2022/02/01 07:26:32;;;;;;;1.50;1.30;;;8.80;99.90;;;;;;5043212;28;20208;-67
2022/02/01 07:28:58;;;;;;;2.03;1.43;;;8.80;99.90;;;;;;5052669;28;20183;-67
2022/02/01 07:31:25;;;;;;;5.30;1.70;;;8.80;99.90;;;;;;5045841;28;20226;-67
2022/02/01 07:33:51;;;;;;;3.40;1.67;;;8.80;99.90;;;;;;5041799;28;20247;-67
2022/02/01 07:36:17;;;;;;;4.00;1.70;;;8.80;99.90;;;;;;5043171;28;20202;-67
2022/02/01 07:38:44;;;;;;;5.00;1.50;;;8.90;99.90;;;;;;5041593;28;20238;-67
2022/02/01 07:41:12;;;;;;;5.13;1.70;;;8.90;99.90;;;;;;5043440;28;20195;-67
2022/02/01 07:43:38;;;;;;;4.60;1.60;;;8.90;99.90;;;;;;5023494;28;20243;-67
2022/02/01 07:46:08;;;;;;;3.47;1.63;;;9.00;99.90;;;;;;5008740;28;20207;-67
2022/02/01 07:48:35;;;;;;;1.80;1.60;;;9.10;99.90;;;;;;5012146;28;20238;-67
2022/02/01 07:51:03;;;;;;;3.80;1.80;;;9.10;99.90;;;;;;5029624;28;20314;-67
2022/02/01 07:53:29;;;;;;;3.67;1.60;;;9.20;99.90;;;;;;5030871;28;20245;-67
2022/02/01 07:55:55;;;;;;;2.80;1.80;;;9.20;99.90;;;;;;5014865;28;20599;-67
2022/02/01 07:58:21;;;;;;;2.33;1.43;;;9.30;99.90;;;;;;5048763;28;20708;-67
2022/02/01 08:00:47;;;;;;;6.10;1.97;;;9.40;99.90;;;;;;5047038;28;20227;-67
2022/02/01 08:03:14;;;;;;;2.57;1.80;;;9.50;99.90;;;;;;5048674;28;20213;-67
2022/02/01 08:05:40;;;;;;;3.03;1.60;;;9.60;99.90;;;;;;5046308;28;21101;-67
2022/02/01 08:08:08;;;;;;;2.00;1.50;;;9.70;99.90;;;;;;5026209;28;20237;-67
2022/02/01 08:10:47;;;;;;;5.87;2.00;;;9.80;99.90;;;;;;5030314;28;20215;-67
2022/02/01 08:21:05;;;;;;;5.00;2.37;;;10.20;99.90;;;;;;5042896;28;20184;-67
2022/02/01 08:23:33;;;;;;;5.77;2.03;;;10.20;99.90;;;;;;5048192;28;20215;-67
2022/02/01 08:26:00;;;;;;;4.00;1.63;;;10.20;99.90;;;;;;5036326;28;20195;-67
2022/02/01 08:28:27;;;;;;;4.27;1.70;;;10.20;99.90;;;;;;5044299;28;20192;-67
2022/02/01 08:30:54;;;;;;;3.57;2.20;;;10.30;99.90;;;;;;5026222;28;20188;-67
2022/02/01 08:33:25;;;;;;;6.47;2.27;;;10.30;99.90;;;;;;5040647;28;20203;-66
2022/02/01 08:35:51;;;;;;;6.20;2.03;;;10.30;99.90;;;;;;5016668;28;20861;-67
2022/02/01 08:38:19;;;;;;;8.70;2.33;;;10.30;99.90;;;;;;5044097;28;20211;-67
2022/02/01 08:40:46;;;;;;;3.33;1.60;;;10.40;99.90;;;;;;5029697;28;20273;-67
2022/02/01 08:43:14;;;;;;;6.23;2.07;;;10.40;99.90;;;;;;5045240;28;20215;-66
2022/02/01 08:45:42;;;;;;;8.70;2.00;;;10.50;99.90;;;;;;5035405;28;20183;-66
2022/02/01 08:48:08;;;;;;;11.57;2.23;;;10.70;99.90;;;;;;5020919;28;20202;-67
2022/02/01 08:50:36;;;;;;;9.20;2.23;;;10.70;99.90;;;;;;5028431;28;20595;-67
2022/02/01 08:53:13;;;;;;;8.83;2.17;;;10.70;99.90;;;;;;5047152;28;20314;-67
2022/02/01 08:56:01;;;;;;;6.87;2.17;;;10.80;99.90;;;;;;5046480;28;20268;-67
2022/02/01 08:58:26;;;;;;;5.37;2.10;;;10.90;99.90;;;;;;5037728;28;20187;-67
2022/02/01 09:00:55;;;;;;;5.27;1.90;;;10.90;99.90;;;;;;5051309;28;20964;-67
2022/02/01 09:03:21;;;;;;;4.30;1.83;;;10.90;99.90;;;;;;5028542;28;20273;-67
2022/02/01 09:05:49;;;;;;;10.60;2.37;;;10.90;99.90;;;;;;5045554;28;20556;-67
2022/02/01 09:08:17;;;;;;;6.07;1.80;;;10.90;99.90;;;;;;5023462;28;20234;-67
2022/02/01 09:10:44;;;;;;;4.37;1.60;;;10.90;99.90;;;;;;5029934;28;20955;-67
2022/02/01 09:13:10;;;;;;;8.90;1.80;;;11.00;99.90;;;;;;5027984;28;20188;-67
2022/02/01 09:15:37;;;;;;;5.50;1.90;;;11.00;99.90;;;;;;5025496;28;20249;-67
2022/02/01 09:18:03;;;;;;;10.73;2.00;;;11.00;99.90;;;;;;5043725;28;20655;-67
2022/02/01 09:20:31;;;;;;;6.23;2.20;;;11.10;99.90;;;;;;5027776;28;20187;-67
2022/02/01 09:22:58;;;;;;;4.67;2.10;;;11.20;99.90;;;;;;5046253;28;20191;-67
2022/02/01 09:25:25;;;;;;;9.27;2.10;;;11.20;99.90;;;;;;5045299;28;20275;-67
2022/02/01 09:27:52;;;;;;;3.97;1.97;;;11.20;99.90;;;;;;5044552;28;20876;-66
2022/02/01 09:30:22;;;;;;;4.43;1.57;;;11.20;99.90;;;;;;5052564;28;20298;-67
2022/02/01 09:32:49;;;;;;;4.27;1.73;;;11.20;99.90;;;;;;5044819;28;20211;-67
2022/02/01 09:35:15;;;;;;;4.53;1.60;;;11.20;99.90;;;;;;5046185;28;20285;-67
2022/02/01 09:37:42;;;;;;;5.13;1.77;;;11.20;99.90;;;;;;5044208;28;20264;-67
2022/02/01 09:40:10;;;;;;;6.07;1.90;;;11.10;99.90;;;;;;5040603;28;20238;-67
2022/02/01 09:42:39;;;;;;;6.40;1.60;;;11.10;99.90;;;;;;5023580;28;20242;-67
2022/02/01 09:45:09;;;;;;;6.47;1.87;;;11.20;99.90;;;;;;5028500;28;20211;-67
2022/02/01 09:47:46;;;;;;;6.10;1.70;;;11.20;99.90;;;;;;5041703;28;20192;-67
2022/02/01 09:50:17;;;;;;;3.47;1.57;;;11.20;99.90;;;;;;5037106;28;20190;-67
2022/02/01 09:52:44;;;;;;;4.67;1.60;;;11.20;99.90;;;;;;5043847;28;20183;-68
2022/02/01 09:55:13;;;;;;;6.97;2.27;;;11.30;99.90;;;;;;5019055;28;20227;-67
2022/02/01 09:57:44;;;;;;;7.87;1.60;;;11.40;99.90;;;;;;5041569;28;20211;-67
2022/02/01 10:00:15;;;;;;;10.20;1.33;;;11.40;99.90;;;;;;5025596;28;20257;-67
2022/02/01 10:02:46;;;;;;;7.40;1.60;;;11.40;99.90;;;;;;5026513;28;20544;-68
2022/02/01 10:05:16;;;;;;;4.37;1.63;;;11.40;99.90;;;;;;5036989;28;20215;-67
2022/02/01 10:07:57;;;;;;;5.27;1.60;;;11.50;99.90;;;;;;5040619;28;20865;-67
2022/02/01 10:10:30;;;;;;;3.30;1.50;;;11.60;99.90;;;;;;5025075;28;20318;-67
2022/02/01 10:13:08;;;;;;;5.10;1.30;;;11.60;99.90;;;;;;5037533;28;20183;-68
2022/02/01 10:15:38;;;;;;;4.80;1.60;;;11.60;99.90;;;;;;5042980;28;20241;-68
2022/02/01 10:18:07;;;;;;;3.53;1.30;;;11.70;99.90;;;;;;5040882;28;20210;-67
2022/02/01 10:20:45;;;;;;;3.33;1.47;;;11.80;99.90;;;;;;5027423;28;20236;-68
2022/02/01 10:23:27;;;;;;;7.43;1.50;;;11.90;99.90;;;;;;5044573;28;20278;-67
2022/02/01 10:26:17;;;;;;;4.40;1.50;;;12.00;99.90;;;;;;5044320;28;20314;-67
2022/02/01 10:29:27;;;;;;;3.83;1.40;;;12.40;99.90;;;;;;5026969;28;20317;-68
2022/02/01 10:31:57;;;;;;;6.73;1.30;;;12.60;99.90;;;;;;5033951;28;20246;-68
2022/02/01 10:37:01;;;;;;;10.53;1.30;;;12.80;99.90;;;;;;5042089;28;20238;-68
2022/02/01 10:39:33;;;;;;;10.60;1.40;;;13.10;99.90;;;;;;5031438;28;20219;-67
2022/02/01 10:42:12;;;;;;;3.13;1.33;;;13.40;99.90;;;;;;5030549;28;20187;-68
2022/02/01 10:44:47;;;;;;;3.20;1.30;;;13.80;99.90;;;;;;5028684;28;20288;-68
2022/02/01 10:47:35;;;;;;;3.60;1.00;;;14.00;99.90;;;;;;5040210;28;20198;-68
2022/02/01 10:50:06;;;;;;;4.97;1.00;;;14.30;99.90;;;;;;5040076;28;20253;-68
2022/02/01 10:52:49;;;;;;;4.07;1.40;;;14.80;99.90;;;;;;5040306;28;20192;-68
2022/02/01 10:55:19;;;;;;;3.30;1.40;;;15.80;99.90;;;;;;5040508;28;20595;-68
2022/02/01 10:57:46;;;;;;;2.90;1.07;;;17.40;99.90;;;;;;5041114;28;20410;-68
2022/02/01 11:00:17;;;;;;;2.43;1.03;;;17.70;99.90;;;;;;5024117;28;20244;-68
2022/02/01 11:02:46;;;;;;;3.60;1.47;;;16.50;99.90;;;;;;5022275;28;20291;-68
2022/02/01 11:05:17;;;;;;;2.00;0.93;;;15.90;99.90;;;;;;5022773;28;20214;-68
2022/02/01 11:07:48;;;;;;;5.43;1.50;;;15.80;99.90;;;;;;5040372;28;20274;-68
2022/02/01 11:10:15;;;;;;;3.27;1.40;;;15.90;99.90;;;;;;5025318;28;20298;-68
2022/02/01 11:12:41;;;;;;;3.10;1.33;;;16.10;99.90;;;;;;5046018;28;20226;-68
2022/02/01 11:15:28;;;;;;;2.07;1.13;;;16.10;99.90;;;;;;5038205;28;20187;-68
2022/02/01 11:17:54;;;;;;;1.77;1.00;;;15.90;99.90;;;;;;5040996;28;20535;-67
2022/02/01 11:20:32;;;;;;;6.73;1.37;;;15.60;99.90;;;;;;5043422;28;20652;-68
2022/02/01 11:23:10;;;;;;;3.10;1.13;;;15.30;99.90;;;;;;5038022;28;20508;-68
2022/02/01 11:25:47;;;;;;;4.40;1.17;;;14.90;99.90;;;;;;5021959;28;20191;-68
2022/02/01 11:29:01;;;;;;;2.90;1.37;;;14.60;99.90;;;;;;5042404;28;20214;-68
2022/02/01 11:31:30;;;;;;;5.87;1.63;;;14.40;99.90;;;;;;5041653;28;20187;-68
2022/02/01 11:33:57;;;;;;;2.73;1.10;;;14.30;99.90;;;;;;5043034;28;20226;-68
2022/02/01 11:36:24;;;;;;;4.40;1.57;;;14.10;99.90;;;;;;5040100;28;20202;-67
2022/02/01 11:38:58;;;;;;;5.43;1.60;;;13.90;99.90;;;;;;5010042;28;20234;-68
2022/02/01 11:41:37;;;;;;;8.47;1.60;;;13.70;99.90;;;;;;5029633;28;20183;-68
2022/02/01 11:44:33;;;;;;;4.50;1.30;;;13.70;99.90;;;;;;5035330;28;20554;-68
2022/02/01 11:47:11;;;;;;;3.03;1.20;;;13.60;99.90;;;;;;4989732;28;20641;-68
2022/02/01 11:50:00;;;;;;;3.50;1.13;;;13.40;99.90;;;;;;5005827;28;20194;-68
2022/02/01 11:52:28;;;;;;;4.10;1.20;;;13.20;99.90;;;;;;5011869;28;20192;-68
2022/02/01 11:55:07;;;;;;;6.57;1.30;;;13.20;99.90;;;;;;5048287;28;20187;-68
2022/02/01 11:57:34;;;;;;;8.70;1.60;;;13.40;99.90;;;;;;5029250;28;20180;-68
2022/02/01 12:00:13;;;;;;;3.83;1.60;;;13.50;99.90;;;;;;5046872;28;20529;-67
2022/02/01 12:02:46;;;;;;;3.90;1.40;;;13.50;99.90;;;;;;5048028;28;20250;-68
2022/02/01 12:05:20;;;;;;;2.60;1.30;;;13.50;99.90;;;;;;5030629;28;20226;-68
2022/02/01 12:08:00;;;;;;;2.33;1.10;;;13.50;99.90;;;;;;5013449;28;20187;-68
2022/02/01 12:10:27;;;;;;;5.73;1.30;;;13.40;99.90;;;;;;5048252;28;20287;-68
2022/02/01 12:12:58;;;;;;;2.00;1.00;;;13.40;99.90;;;;;;5048352;28;20223;-68
2022/02/01 12:15:35;;;;;;;2.03;1.10;;;13.40;99.90;;;;;;5041013;28;20195;-68
2022/02/01 12:18:44;;;;;;;4.07;1.47;;;13.30;99.90;;;;;;5043757;28;20195;-68
2022/02/01 12:21:48;;;;;;;2.20;1.30;;;13.30;99.90;;;;;;5028332;28;20188;-68
2022/02/01 12:24:14;;;;;;;2.50;1.43;;;13.40;99.90;;;;;;4989200;28;20224;-68
2022/02/01 12:26:43;;;;;;;6.37;1.20;;;13.40;99.90;;;;;;5027939;28;20774;-68
2022/02/01 12:29:14;;;;;;;2.93;1.50;;;13.20;99.90;;;;;;5015009;28;20183;-68
2022/02/01 12:31:42;;;;;;;3.53;1.33;;;13.20;99.90;;;;;;5029956;28;20199;-68
2022/02/01 12:34:17;;;;;;;8.73;1.40;;;13.20;99.90;;;;;;5047336;28;20237;-68
2022/02/01 12:36:52;;;;;;;3.30;1.47;;;13.20;99.90;;;;;;5047992;28;20542;-68
2022/02/01 12:39:31;;;;;;;4.97;1.40;;;13.20;99.90;;;;;;5013085;28;20264;-68
2022/02/01 12:47:18;;;;;;;4.90;1.10;;;13.10;99.90;;;;;;5027509;28;20274;-68
2022/02/01 12:49:49;;;;;;;3.93;1.60;;;13.00;99.90;;;;;;5026558;28;20188;-68
2022/02/01 12:52:32;;;;;;;5.10;1.60;;;13.10;99.90;;;;;;5032475;28;20219;-68
2022/02/01 12:55:08;;;;;;;3.37;1.20;;;13.10;99.90;;;;;;5047178;28;20241;-68
2022/02/01 12:57:37;;;;;;;3.30;1.53;;;13.10;99.90;;;;;;5028927;28;20198;-68
2022/02/01 13:00:17;;;;;;;4.97;1.60;;;13.00;99.90;;;;;;5029401;28;20208;-67
2022/02/01 13:02:45;;;;;;;2.00;1.40;;;13.00;99.90;;;;;;5046151;28;20541;-68
2022/02/01 13:05:17;;;;;;;3.60;1.40;;;12.90;99.90;;;;;;5046068;28;20227;-68
2022/02/01 13:21:16;;;;;;;3.87;1.73;;;12.60;99.90;;;;;;5038364;28;20176;-67
2022/02/01 13:23:44;;;;;;;4.17;1.30;;;12.70;99.90;;;;;;5046802;28;20207;-68
2022/02/01 13:26:14;;;;;;;4.00;1.40;;;12.70;99.90;;;;;;5045529;28;20195;-68
2022/02/01 13:28:43;;;;;;;4.70;1.57;;;12.70;99.90;;;;;;5046025;28;20214;-67
2022/02/01 13:31:15;;;;;;;4.67;1.40;;;12.80;99.90;;;;;;5025821;28;20199;-67
2022/02/01 13:33:51;;;;;;;3.77;1.70;;;12.70;99.90;;;;;;5027159;28;20184;-67
2022/02/01 13:36:18;;;;;;;6.20;1.70;;;12.60;99.90;;;;;;5027541;28;20682;-67
2022/02/01 13:39:25;;;;;;;4.90;1.70;;;12.40;99.90;;;;;;5041646;28;20218;-67
2022/02/01 13:41:59;;;;;;;3.27;1.40;;;12.40;99.90;;;;;;5008837;28;20191;-67
2022/02/01 13:44:27;;;;;;;3.70;1.43;;;12.40;99.90;;;;;;5031509;28;20743;-68
2022/02/01 13:47:11;;;;;;;3.73;1.50;;;12.30;99.90;;;;;;5046027;28;20395;-67
2022/02/01 13:49:39;;;;;;;4.63;1.50;;;12.20;99.90;;;;;;5028825;28;20191;-68
2022/02/01 13:52:07;;;;;;;1.93;1.37;;;12.10;99.90;;;;;;5011924;28;20191;-67
2022/02/01 13:54:43;;;;;;;2.33;1.43;;;12.10;99.90;;;;;;5046507;28;20182;-68
2022/02/01 13:57:18;;;;;;;4.60;1.43;;;12.10;99.90;;;;;;5027470;28;20317;-67
2022/02/01 13:59:47;;;;;;;3.60;1.53;;;12.00;99.90;;;;;;5046214;28;20198;-68
2022/02/01 14:02:33;;;;;;;3.13;1.30;;;12.00;99.90;;;;;;5045900;28;20202;-67
2022/02/01 14:05:07;;;;;;;4.13;1.40;;;12.00;99.90;;;;;;5046438;28;20215;-68
2022/02/01 14:08:05;;;;;;;6.30;2.60;;;11.90;99.90;;;;;;5027694;28;20536;-67
2022/02/01 14:10:47;;;;;;;5.53;1.50;;;11.90;99.90;;;;;;5028923;28;20696;-67
2022/02/01 14:22:44;;;;;;;4.93;1.70;;;11.90;99.90;;;;;;5040066;28;20188;-67
2022/02/01 14:34:52;;;;;;;8.30;1.80;;;11.70;99.90;;;;;;5046232;28;20182;-67
2022/02/01 14:37:27;;;;;;;4.50;1.63;;;11.70;99.90;;;;;;5026415;28;20202;-67
2022/02/01 14:45:14;;;;;;;10.93;1.90;;;11.60;99.90;;;;;;5045818;28;20313;-68
2022/02/01 14:47:40;;;;;;;4.10;1.53;;;11.60;99.90;;;;;;5044811;28;20202;-67
2022/02/01 14:50:09;;;;;;;5.37;1.60;;;11.50;99.90;;;;;;5043824;28;21032;-67
2022/02/01 14:52:36;;;;;;;5.87;1.60;;;11.50;99.90;;;;;;5045200;28;20191;-68
2022/02/01 14:55:13;;;;;;;3.43;1.83;;;11.50;99.90;;;;;;5045893;28;20262;-67
2022/02/01 15:13:48;;;;;;;4.53;1.70;;;11.20;99.90;;;;;;5026113;28;20184;-67
2022/02/01 15:16:15;;;;;;;5.93;1.60;;;11.20;99.90;;;;;;5026199;28;20203;-67
2022/02/01 15:18:44;;;;;;;2.67;1.90;;;11.10;99.90;;;;;;5043045;28;20221;-68
2022/02/01 15:21:12;;;;;;;6.00;1.80;;;11.10;99.90;;;;;;5043839;28;20221;-67
2022/02/01 15:23:38;;;;;;;5.27;2.53;;;11.00;99.90;;;;;;5043557;28;20215;-67
2022/02/01 15:26:04;;;;;;;7.50;2.20;;;11.10;99.90;;;;;;5044536;28;20310;-67
2022/02/01 15:28:32;;;;;;;4.13;1.70;;;11.00;99.90;;;;;;5026554;28;20175;-67
2022/02/01 15:31:02;;;;;;;6.67;1.90;;;11.00;99.90;;;;;;5045082;28;20694;-67
2022/02/01 15:33:29;;;;;;;6.67;2.60;;;11.00;99.90;;;;;;5027555;28;20820;-68
2022/02/01 15:36:02;;;;;;;7.10;1.97;;;11.00;99.90;;;;;;5043682;28;20734;-67